sensor_id;sensor_type;location;lat;lon;timestamp;temperature;humidity
47252;DHT22;32991;51.374;11.586;2022-10-16T00:00:48;15.10;99.90
47252;DHT22;32991;51.374;11.586;2022-10-16T00:03:15;15.00;99.90
47252;DHT22;32991;51.374;11.586;2022-10-16T00:05:42;14.90;99.90
47252;DHT22;32991;51.374;11.586;2022-10-16T00:08:11;14.90;99.90
47252;DHT22;32991;51.374;11.586;2022-10-16T00:10:39;14.80;99.90
47252;DHT22;32991;51.374;11.586;2022-10-16T00:13:06;14.80;99.90
47252;DHT22;32991;51.374;11.586;2022-10-16T00:15:34;14.80;99.90
47252;DHT22;32991;51.374;11.586;2022-10-16T00:18:03;14.80;99.90
47252;DHT22;32991;51.374;11.586;2022-10-16T00:20:33;14.80;99.90
47252;DHT22;32991;51.374;11.586;2022-10-16T00:23:00;14.80;99.90
47252;DHT22;32991;51.374;11.586;2022-10-16T00:25:27;14.90;99.90
47252;DHT22;32991;51.374;11.586;2022-10-16T00:27:54;14.90;99.90
47252;DHT22;32991;51.374;11.586;2022-10-16T00:30:20;14.90;99.90
47252;DHT22;32991;51.374;11.586;2022-10-16T00:32:47;14.90;99.90
47252;DHT22;32991;51.374;11.586;2022-10-16T00:35:14;15.00;99.90
47252;DHT22;32991;51.374;11.586;2022-10-16T00:37:41;15.00;99.90
47252;DHT22;32991;51.374;11.586;2022-10-16T00:40:07;14.90;99.90
47252;DHT22;32991;51.374;11.586;2022-10-16T00:42:34;14.90;99.90
47252;DHT22;32991;51.374;11.586;2022-10-16T00:45:02;14.80;99.90
47252;DHT22;32991;51.374;11.586;2022-10-16T00:47:30;14.80;99.90
47252;DHT22;32991;51.374;11.586;2022-10-16T00:50:00;14.80;99.90
47252;DHT22;32991;51.374;11.586;2022-10-16T00:52:28;14.70;99.90
47252;DHT22;32991;51.374;11.586;2022-10-16T00:54:55;14.70;99.90
47252;DHT22;32991;51.374;11.586;2022-10-16T00:57:22;14.70;99.90
47252;DHT22;32991;51.374;11.586;2022-10-16T00:59:49;14.70;99.90
47252;DHT22;32991;51.374;11.586;2022-10-16T01:02:16;14.70;99.90
47252;DHT22;32991;51.374;11.586;2022-10-16T01:04:44;14.60;99.90
47252;DHT22;32991;51.374;11.586;2022-10-16T01:07:14;14.60;99.90
47252;DHT22;32991;51.374;11.586;2022-10-16T01:17:45;14.60;99.90
47252;DHT22;32991;51.374;11.586;2022-10-16T01:25:13;14.50;99.90
47252;DHT22;32991;51.374;11.586;2022-10-16T01:27:42;14.40;99.90
47252;DHT22;32991;51.374;11.586;2022-10-16T01:30:28;14.40;99.90
47252;DHT22;32991;51.374;11.586;2022-10-16T01:32:57;14.40;99.90
47252;DHT22;32991;51.374;11.586;2022-10-16T01:35:27;14.40;99.90
47252;DHT22;32991;51.374;11.586;2022-10-16T01:38:02;14.30;99.90
47252;DHT22;32991;51.374;11.586;2022-10-16T01:40:30;14.30;99.90
47252;DHT22;32991;51.374;11.586;2022-10-16T01:43:00;14.30;99.90
47252;DHT22;32991;51.374;11.586;2022-10-16T01:45:28;14.30;99.90
47252;DHT22;32991;51.374;11.586;2022-10-16T01:47:56;14.30;99.90
47252;DHT22;32991;51.374;11.586;2022-10-16T01:50:23;14.30;99.90
47252;DHT22;32991;51.374;11.586;2022-10-16T01:52:51;14.20;99.90
47252;DHT22;32991;51.374;11.586;2022-10-16T01:55:21;14.20;99.90
47252;DHT22;32991;51.374;11.586;2022-10-16T01:57:49;14.20;99.90
47252;DHT22;32991;51.374;11.586;2022-10-16T02:00:17;14.20;99.90
47252;DHT22;32991;51.374;11.586;2022-10-16T02:02:46;14.20;99.90
47252;DHT22;32991;51.374;11.586;2022-10-16T02:07:51;14.20;99.90
47252;DHT22;32991;51.374;11.586;2022-10-16T02:10:18;14.20;99.90
47252;DHT22;32991;51.374;11.586;2022-10-16T02:12:47;14.20;99.90
47252;DHT22;32991;51.374;11.586;2022-10-16T02:15:15;14.20;99.90
47252;DHT22;32991;51.374;11.586;2022-10-16T02:17:42;14.20;99.90
47252;DHT22;32991;51.374;11.586;2022-10-16T02:20:09;14.20;99.90
47252;DHT22;32991;51.374;11.586;2022-10-16T02:22:40;14.20;99.90
47252;DHT22;32991;51.374;11.586;2022-10-16T02:25:10;14.20;99.90
47252;DHT22;32991;51.374;11.586;2022-10-16T02:28:13;14.20;99.90
47252;DHT22;32991;51.374;11.586;2022-10-16T02:30:39;14.30;99.90
47252;DHT22;32991;51.374;11.586;2022-10-16T02:33:09;14.30;99.90
47252;DHT22;32991;51.374;11.586;2022-10-16T02:35:36;14.40;99.90
47252;DHT22;32991;51.374;11.586;2022-10-16T02:38:04;14.50;99.90
47252;DHT22;32991;51.374;11.586;2022-10-16T02:40:32;14.50;99.90
47252;DHT22;32991;51.374;11.586;2022-10-16T02:42:58;14.50;99.90
47252;DHT22;32991;51.374;11.586;2022-10-16T02:45:25;14.50;99.90
47252;DHT22;32991;51.374;11.586;2022-10-16T02:47:52;14.50;99.90
47252;DHT22;32991;51.374;11.586;2022-10-16T02:50:19;14.50;99.90
47252;DHT22;32991;51.374;11.586;2022-10-16T02:52:46;14.40;99.90
47252;DHT22;32991;51.374;11.586;2022-10-16T02:55:12;14.40;99.90
47252;DHT22;32991;51.374;11.586;2022-10-16T02:57:39;14.40;99.90
47252;DHT22;32991;51.374;11.586;2022-10-16T03:00:08;14.40;99.90
47252;DHT22;32991;51.374;11.586;2022-10-16T03:02:35;14.40;99.90
47252;DHT22;32991;51.374;11.586;2022-10-16T03:05:02;14.50;99.90
47252;DHT22;32991;51.374;11.586;2022-10-16T03:07:28;14.50;99.90
47252;DHT22;32991;51.374;11.586;2022-10-16T03:09:55;14.50;99.90
47252;DHT22;32991;51.374;11.586;2022-10-16T03:12:22;14.50;99.90
47252;DHT22;32991;51.374;11.586;2022-10-16T03:14:49;14.40;99.90
47252;DHT22;32991;51.374;11.586;2022-10-16T03:17:16;14.40;99.90
47252;DHT22;32991;51.374;11.586;2022-10-16T03:19:43;14.30;99.90
47252;DHT22;32991;51.374;11.586;2022-10-16T03:22:10;14.30;99.90
47252;DHT22;32991;51.374;11.586;2022-10-16T03:24:36;14.20;99.90
47252;DHT22;32991;51.374;11.586;2022-10-16T03:27:03;14.20;99.90
47252;DHT22;32991;51.374;11.586;2022-10-16T03:29:30;14.20;99.90
47252;DHT22;32991;51.374;11.586;2022-10-16T03:31:58;14.20;99.90
47252;DHT22;32991;51.374;11.586;2022-10-16T03:34:25;14.20;99.90
47252;DHT22;32991;51.374;11.586;2022-10-16T03:36:52;14.30;99.90
47252;DHT22;32991;51.374;11.586;2022-10-16T03:39:19;14.30;99.90
47252;DHT22;32991;51.374;11.586;2022-10-16T03:41:46;14.30;99.90
47252;DHT22;32991;51.374;11.586;2022-10-16T03:44:13;14.40;99.90
47252;DHT22;32991;51.374;11.586;2022-10-16T03:46:40;14.40;99.90
47252;DHT22;32991;51.374;11.586;2022-10-16T03:49:07;14.40;99.90
47252;DHT22;32991;51.374;11.586;2022-10-16T03:51:35;14.40;99.90
47252;DHT22;32991;51.374;11.586;2022-10-16T03:54:02;14.30;99.90
47252;DHT22;32991;51.374;11.586;2022-10-16T03:56:29;14.30;99.90
47252;DHT22;32991;51.374;11.586;2022-10-16T03:58:55;14.30;99.90
47252;DHT22;32991;51.374;11.586;2022-10-16T04:01:23;14.30;99.90
47252;DHT22;32991;51.374;11.586;2022-10-16T04:03:49;14.20;99.90
47252;DHT22;32991;51.374;11.586;2022-10-16T04:06:16;14.20;99.90
47252;DHT22;32991;51.374;11.586;2022-10-16T04:08:43;14.20;99.90
47252;DHT22;32991;51.374;11.586;2022-10-16T04:11:10;14.20;99.90
47252;DHT22;32991;51.374;11.586;2022-10-16T04:13:37;14.20;99.90
47252;DHT22;32991;51.374;11.586;2022-10-16T04:16:04;14.20;99.90
47252;DHT22;32991;51.374;11.586;2022-10-16T04:18:30;14.20;99.90
47252;DHT22;32991;51.374;11.586;2022-10-16T04:21:01;14.30;99.90
47252;DHT22;32991;51.374;11.586;2022-10-16T04:23:28;14.30;99.90
47252;DHT22;32991;51.374;11.586;2022-10-16T04:25:55;14.30;99.90
47252;DHT22;32991;51.374;11.586;2022-10-16T04:28:22;14.30;99.90
47252;DHT22;32991;51.374;11.586;2022-10-16T04:30:49;14.40;99.90
47252;DHT22;32991;51.374;11.586;2022-10-16T04:33:15;14.40;99.90
47252;DHT22;32991;51.374;11.586;2022-10-16T04:35:42;14.30;99.90
47252;DHT22;32991;51.374;11.586;2022-10-16T04:38:09;14.30;99.90
47252;DHT22;32991;51.374;11.586;2022-10-16T04:40:36;14.30;99.90
47252;DHT22;32991;51.374;11.586;2022-10-16T04:43:03;14.30;99.90
47252;DHT22;32991;51.374;11.586;2022-10-16T04:45:30;14.30;99.90
47252;DHT22;32991;51.374;11.586;2022-10-16T04:47:57;14.20;99.90
47252;DHT22;32991;51.374;11.586;2022-10-16T04:50:24;14.20;99.90
47252;DHT22;32991;51.374;11.586;2022-10-16T04:53:04;14.20;99.90
47252;DHT22;32991;51.374;11.586;2022-10-16T04:55:30;14.20;99.90
47252;DHT22;32991;51.374;11.586;2022-10-16T04:57:57;14.10;99.90
47252;DHT22;32991;51.374;11.586;2022-10-16T05:00:24;14.10;99.90
47252;DHT22;32991;51.374;11.586;2022-10-16T05:02:50;14.10;99.90
47252;DHT22;32991;51.374;11.586;2022-10-16T05:05:17;14.10;99.90
47252;DHT22;32991;51.374;11.586;2022-10-16T05:07:46;14.20;99.90
47252;DHT22;32991;51.374;11.586;2022-10-16T05:10:13;14.20;99.90
47252;DHT22;32991;51.374;11.586;2022-10-16T05:12:40;14.10;99.90
47252;DHT22;32991;51.374;11.586;2022-10-16T05:15:07;14.10;99.90
47252;DHT22;32991;51.374;11.586;2022-10-16T05:17:34;14.20;99.90
47252;DHT22;32991;51.374;11.586;2022-10-16T05:20:00;14.10;99.90
47252;DHT22;32991;51.374;11.586;2022-10-16T05:22:27;14.10;99.90
47252;DHT22;32991;51.374;11.586;2022-10-16T05:24:54;14.10;99.90
47252;DHT22;32991;51.374;11.586;2022-10-16T05:27:21;14.10;99.90
47252;DHT22;32991;51.374;11.586;2022-10-16T05:29:48;14.10;99.90
47252;DHT22;32991;51.374;11.586;2022-10-16T05:32:15;14.10;99.90
47252;DHT22;32991;51.374;11.586;2022-10-16T05:34:43;14.10;99.90
47252;DHT22;32991;51.374;11.586;2022-10-16T05:37:10;14.10;99.90
47252;DHT22;32991;51.374;11.586;2022-10-16T05:39:38;14.10;99.90
47252;DHT22;32991;51.374;11.586;2022-10-16T05:42:05;14.20;99.90
47252;DHT22;32991;51.374;11.586;2022-10-16T05:44:32;14.10;99.90
47252;DHT22;32991;51.374;11.586;2022-10-16T05:47:04;14.10;99.90
47252;DHT22;32991;51.374;11.586;2022-10-16T05:49:30;14.10;99.90
47252;DHT22;32991;51.374;11.586;2022-10-16T05:51:57;14.00;99.90
47252;DHT22;32991;51.374;11.586;2022-10-16T05:54:24;14.00;99.90
47252;DHT22;32991;51.374;11.586;2022-10-16T05:56:51;14.00;99.90
47252;DHT22;32991;51.374;11.586;2022-10-16T05:59:17;14.00;99.90
47252;DHT22;32991;51.374;11.586;2022-10-16T06:01:44;14.00;99.90
47252;DHT22;32991;51.374;11.586;2022-10-16T06:04:11;14.00;99.90
47252;DHT22;32991;51.374;11.586;2022-10-16T06:06:38;14.00;99.90
47252;DHT22;32991;51.374;11.586;2022-10-16T06:09:04;14.10;99.90
47252;DHT22;32991;51.374;11.586;2022-10-16T06:11:32;14.10;99.90
47252;DHT22;32991;51.374;11.586;2022-10-16T06:14:00;14.10;99.90
47252;DHT22;32991;51.374;11.586;2022-10-16T06:16:29;14.10;99.90
47252;DHT22;32991;51.374;11.586;2022-10-16T06:18:56;14.20;99.90
47252;DHT22;32991;51.374;11.586;2022-10-16T06:21:23;14.30;99.90
47252;DHT22;32991;51.374;11.586;2022-10-16T06:23:54;14.30;99.90
47252;DHT22;32991;51.374;11.586;2022-10-16T06:26:22;14.30;99.90
47252;DHT22;32991;51.374;11.586;2022-10-16T06:28:49;14.30;99.90
47252;DHT22;32991;51.374;11.586;2022-10-16T06:31:16;14.30;99.90
47252;DHT22;32991;51.374;11.586;2022-10-16T06:33:44;14.30;99.90
47252;DHT22;32991;51.374;11.586;2022-10-16T06:36:13;14.30;99.90
47252;DHT22;32991;51.374;11.586;2022-10-16T06:38:41;14.40;99.90
47252;DHT22;32991;51.374;11.586;2022-10-16T06:41:09;14.40;99.90
47252;DHT22;32991;51.374;11.586;2022-10-16T06:43:37;14.40;99.90
47252;DHT22;32991;51.374;11.586;2022-10-16T06:46:05;14.50;99.90
47252;DHT22;32991;51.374;11.586;2022-10-16T06:48:34;14.50;99.90
47252;DHT22;32991;51.374;11.586;2022-10-16T06:51:03;14.50;99.90
47252;DHT22;32991;51.374;11.586;2022-10-16T06:53:32;14.60;99.90
47252;DHT22;32991;51.374;11.586;2022-10-16T06:56:12;14.60;99.90
47252;DHT22;32991;51.374;11.586;2022-10-16T06:58:39;14.80;99.90
47252;DHT22;32991;51.374;11.586;2022-10-16T07:01:06;15.00;99.90
47252;DHT22;32991;51.374;11.586;2022-10-16T07:03:35;15.10;99.90
47252;DHT22;32991;51.374;11.586;2022-10-16T07:06:03;15.40;99.90
47252;DHT22;32991;51.374;11.586;2022-10-16T07:08:30;15.60;99.90
47252;DHT22;32991;51.374;11.586;2022-10-16T07:10:58;15.80;99.90
47252;DHT22;32991;51.374;11.586;2022-10-16T07:13:25;15.90;99.90
47252;DHT22;32991;51.374;11.586;2022-10-16T07:15:52;15.90;99.90
47252;DHT22;32991;51.374;11.586;2022-10-16T07:18:18;16.00;99.90
47252;DHT22;32991;51.374;11.586;2022-10-16T07:20:46;15.90;99.90
47252;DHT22;32991;51.374;11.586;2022-10-16T07:23:13;16.00;99.90
47252;DHT22;32991;51.374;11.586;2022-10-16T07:25:39;16.20;99.90
47252;DHT22;32991;51.374;11.586;2022-10-16T07:28:06;16.30;99.90
47252;DHT22;32991;51.374;11.586;2022-10-16T07:30:34;16.50;99.90
47252;DHT22;32991;51.374;11.586;2022-10-16T07:33:01;17.10;99.90
47252;DHT22;32991;51.374;11.586;2022-10-16T07:35:28;18.50;99.90
47252;DHT22;32991;51.374;11.586;2022-10-16T07:37:54;19.60;99.90
47252;DHT22;32991;51.374;11.586;2022-10-16T07:40:21;19.90;99.90
47252;DHT22;32991;51.374;11.586;2022-10-16T07:42:48;19.80;99.90
47252;DHT22;32991;51.374;11.586;2022-10-16T07:45:14;19.50;99.90
47252;DHT22;32991;51.374;11.586;2022-10-16T07:47:41;19.30;99.90
47252;DHT22;32991;51.374;11.586;2022-10-16T07:50:08;19.20;99.90
47252;DHT22;32991;51.374;11.586;2022-10-16T07:52:35;19.30;99.90
47252;DHT22;32991;51.374;11.586;2022-10-16T07:55:02;19.50;99.90
47252;DHT22;32991;51.374;11.586;2022-10-16T07:57:29;20.00;99.90
47252;DHT22;32991;51.374;11.586;2022-10-16T07:59:56;20.70;99.90
47252;DHT22;32991;51.374;11.586;2022-10-16T08:02:23;21.10;99.90
47252;DHT22;32991;51.374;11.586;2022-10-16T08:04:49;21.20;99.90
47252;DHT22;32991;51.374;11.586;2022-10-16T08:07:16;21.00;99.90
47252;DHT22;32991;51.374;11.586;2022-10-16T08:09:43;20.90;99.90
47252;DHT22;32991;51.374;11.586;2022-10-16T08:12:10;20.90;99.90
47252;DHT22;32991;51.374;11.586;2022-10-16T08:14:37;21.10;99.90
47252;DHT22;32991;51.374;11.586;2022-10-16T08:17:04;21.00;99.90
47252;DHT22;32991;51.374;11.586;2022-10-16T08:19:31;20.90;99.90
47252;DHT22;32991;51.374;11.586;2022-10-16T08:22:00;20.80;99.90
47252;DHT22;32991;51.374;11.586;2022-10-16T08:24:27;20.50;99.90
47252;DHT22;32991;51.374;11.586;2022-10-16T08:26:57;20.60;99.90
47252;DHT22;32991;51.374;11.586;2022-10-16T08:29:24;21.30;99.90
47252;DHT22;32991;51.374;11.586;2022-10-16T08:31:50;22.70;99.90
47252;DHT22;32991;51.374;11.586;2022-10-16T08:34:17;24.30;99.90
47252;DHT22;32991;51.374;11.586;2022-10-16T08:36:44;25.10;99.90
47252;DHT22;32991;51.374;11.586;2022-10-16T08:39:10;25.10;99.90
47252;DHT22;32991;51.374;11.586;2022-10-16T08:44:29;23.50;99.90
47252;DHT22;32991;51.374;11.586;2022-10-16T08:49:27;21.70;99.90
47252;DHT22;32991;51.374;11.586;2022-10-16T08:51:56;21.30;99.90
47252;DHT22;32991;51.374;11.586;2022-10-16T08:56:57;21.10;99.90
47252;DHT22;32991;51.374;11.586;2022-10-16T08:59:27;21.30;99.90
47252;DHT22;32991;51.374;11.586;2022-10-16T09:01:53;21.70;99.90
47252;DHT22;32991;51.374;11.586;2022-10-16T09:07:04;22.30;99.90
47252;DHT22;32991;51.374;11.586;2022-10-16T09:12:17;21.30;99.90
47252;DHT22;32991;51.374;11.586;2022-10-16T09:17:25;20.30;99.90
47252;DHT22;32991;51.374;11.586;2022-10-16T09:22:26;20.00;99.90
47252;DHT22;32991;51.374;11.586;2022-10-16T09:24:55;20.20;99.90
47252;DHT22;32991;51.374;11.586;2022-10-16T09:27:25;20.30;99.90
47252;DHT22;32991;51.374;11.586;2022-10-16T09:29:53;20.90;99.90
47252;DHT22;32991;51.374;11.586;2022-10-16T09:32:25;22.40;99.90
47252;DHT22;32991;51.374;11.586;2022-10-16T09:34:53;23.10;99.90
47252;DHT22;32991;51.374;11.586;2022-10-16T09:37:23;22.70;99.90
47252;DHT22;32991;51.374;11.586;2022-10-16T09:39:52;22.10;99.90
47252;DHT22;32991;51.374;11.586;2022-10-16T09:42:19;21.80;99.90
47252;DHT22;32991;51.374;11.586;2022-10-16T09:44:47;21.70;99.90
47252;DHT22;32991;51.374;11.586;2022-10-16T09:47:19;21.50;99.90
47252;DHT22;32991;51.374;11.586;2022-10-16T09:49:50;21.10;99.90
47252;DHT22;32991;51.374;11.586;2022-10-16T09:52:18;20.70;99.90
47252;DHT22;32991;51.374;11.586;2022-10-16T09:55:12;20.40;99.90
47252;DHT22;32991;51.374;11.586;2022-10-16T09:57:34;20.00;99.90
47252;DHT22;32991;51.374;11.586;2022-10-16T10:00:04;19.80;99.90
47252;DHT22;32991;51.374;11.586;2022-10-16T10:02:35;19.80;99.90
47252;DHT22;32991;51.374;11.586;2022-10-16T10:05:04;19.70;99.90
47252;DHT22;32991;51.374;11.586;2022-10-16T10:07:32;19.60;99.90
47252;DHT22;32991;51.374;11.586;2022-10-16T10:10:01;19.80;99.90
47252;DHT22;32991;51.374;11.586;2022-10-16T10:12:28;20.40;99.90
47252;DHT22;32991;51.374;11.586;2022-10-16T10:15:33;21.60;99.90
47252;DHT22;32991;51.374;11.586;2022-10-16T10:17:54;22.90;99.90
47252;DHT22;32991;51.374;11.586;2022-10-16T10:20:32;23.20;99.90
47252;DHT22;32991;51.374;11.586;2022-10-16T10:23:01;23.20;99.90
47252;DHT22;32991;51.374;11.586;2022-10-16T10:25:32;23.10;99.90
47252;DHT22;32991;51.374;11.586;2022-10-16T10:28:06;22.70;99.90
47252;DHT22;32991;51.374;11.586;2022-10-16T10:33:25;21.40;99.90
47252;DHT22;32991;51.374;11.586;2022-10-16T10:35:56;20.70;99.90
47252;DHT22;32991;51.374;11.586;2022-10-16T10:46:24;20.20;99.90
47252;DHT22;32991;51.374;11.586;2022-10-16T10:54:04;20.20;99.90
47252;DHT22;32991;51.374;11.586;2022-10-16T10:56:45;20.40;99.90
47252;DHT22;32991;51.374;11.586;2022-10-16T11:01:47;20.80;99.90
47252;DHT22;32991;51.374;11.586;2022-10-16T11:04:25;20.90;99.90
47252;DHT22;32991;51.374;11.586;2022-10-16T11:06:55;21.10;99.90
47252;DHT22;32991;51.374;11.586;2022-10-16T11:09:25;21.30;99.90
47252;DHT22;32991;51.374;11.586;2022-10-16T11:12:06;21.30;99.90
47252;DHT22;32991;51.374;11.586;2022-10-16T11:15:18;21.10;99.90
47252;DHT22;32991;51.374;11.586;2022-10-16T11:17:39;21.00;99.90
47252;DHT22;32991;51.374;11.586;2022-10-16T11:27:47;21.90;99.90
47252;DHT22;32991;51.374;11.586;2022-10-16T11:30:20;22.30;99.90
47252;DHT22;32991;51.374;11.586;2022-10-16T11:32:54;23.00;99.90
47252;DHT22;32991;51.374;11.586;2022-10-16T11:35:25;23.90;99.90
47252;DHT22;32991;51.374;11.586;2022-10-16T11:37:57;24.10;99.90
47252;DHT22;32991;51.374;11.586;2022-10-16T11:40:27;24.70;99.90
47252;DHT22;32991;51.374;11.586;2022-10-16T11:42:59;25.40;97.90
47252;DHT22;32991;51.374;11.586;2022-10-16T11:45:36;25.20;97.80
47252;DHT22;32991;51.374;11.586;2022-10-16T11:50:57;24.30;97.90
47252;DHT22;32991;51.374;11.586;2022-10-16T11:55:51;25.30;96.80
47252;DHT22;32991;51.374;11.586;2022-10-16T12:03:42;26.90;92.20
47252;DHT22;32991;51.374;11.586;2022-10-16T12:06:19;26.80;91.60
47252;DHT22;32991;51.374;11.586;2022-10-16T12:08:51;26.10;92.00
47252;DHT22;32991;51.374;11.586;2022-10-16T12:14:05;24.90;93.30
47252;DHT22;32991;51.374;11.586;2022-10-16T12:16:33;24.50;94.10
47252;DHT22;32991;51.374;11.586;2022-10-16T12:19:20;23.70;94.70
47252;DHT22;32991;51.374;11.586;2022-10-16T12:21:47;23.20;95.80
47252;DHT22;32991;51.374;11.586;2022-10-16T12:24:21;22.60;97.00
47252;DHT22;32991;51.374;11.586;2022-10-16T12:26:49;22.20;98.20
47252;DHT22;32991;51.374;11.586;2022-10-16T12:31:50;23.00;98.30
47252;DHT22;32991;51.374;11.586;2022-10-16T12:34:28;24.30;96.30
47252;DHT22;32991;51.374;11.586;2022-10-16T12:36:56;25.30;94.50
47252;DHT22;32991;51.374;11.586;2022-10-16T12:39:33;26.20;92.50
47252;DHT22;32991;51.374;11.586;2022-10-16T12:42:02;26.80;91.20
47252;DHT22;32991;51.374;11.586;2022-10-16T12:44:33;27.50;90.80
47252;DHT22;32991;51.374;11.586;2022-10-16T12:47:01;28.20;87.30
47252;DHT22;32991;51.374;11.586;2022-10-16T12:51:55;29.10;82.50
47252;DHT22;32991;51.374;11.586;2022-10-16T12:54:29;29.50;81.10
47252;DHT22;32991;51.374;11.586;2022-10-16T12:57:13;29.70;76.80
47252;DHT22;32991;51.374;11.586;2022-10-16T12:59:54;28.80;76.50
47252;DHT22;32991;51.374;11.586;2022-10-16T13:05:04;26.30;82.80
47252;DHT22;32991;51.374;11.586;2022-10-16T13:18:08;23.40;92.30
47252;DHT22;32991;51.374;11.586;2022-10-16T13:23:13;23.70;92.70
47252;DHT22;32991;51.374;11.586;2022-10-16T13:28:09;24.20;92.00
47252;DHT22;32991;51.374;11.586;2022-10-16T13:30:38;24.30;91.30
47252;DHT22;32991;51.374;11.586;2022-10-16T13:36:03;24.10;91.10
47252;DHT22;32991;51.374;11.586;2022-10-16T13:38:31;23.60;92.00
47252;DHT22;32991;51.374;11.586;2022-10-16T13:41:03;23.20;92.60
47252;DHT22;32991;51.374;11.586;2022-10-16T13:43:34;23.00;93.00
47252;DHT22;32991;51.374;11.586;2022-10-16T13:46:02;22.80;93.20
47252;DHT22;32991;51.374;11.586;2022-10-16T13:49:01;22.60;93.90
47252;DHT22;32991;51.374;11.586;2022-10-16T13:51:29;22.40;94.10
47252;DHT22;32991;51.374;11.586;2022-10-16T13:53:56;22.20;94.50
47252;DHT22;32991;51.374;11.586;2022-10-16T13:56:30;22.10;94.70
47252;DHT22;32991;51.374;11.586;2022-10-16T13:58:58;22.20;95.80
47252;DHT22;32991;51.374;11.586;2022-10-16T14:01:26;22.80;95.20
47252;DHT22;32991;51.374;11.586;2022-10-16T14:04:05;23.70;93.20
47252;DHT22;32991;51.374;11.586;2022-10-16T14:06:33;24.50;92.70
47252;DHT22;32991;51.374;11.586;2022-10-16T14:09:05;25.60;90.70
47252;DHT22;32991;51.374;11.586;2022-10-16T14:11:33;26.20;88.40
47252;DHT22;32991;51.374;11.586;2022-10-16T14:14:00;26.60;87.40
47252;DHT22;32991;51.374;11.586;2022-10-16T14:16:28;27.00;85.40
47252;DHT22;32991;51.374;11.586;2022-10-16T14:21:22;27.50;81.10
47252;DHT22;32991;51.374;11.586;2022-10-16T14:23:49;27.30;81.00
47252;DHT22;32991;51.374;11.586;2022-10-16T14:26:17;26.90;82.10
47252;DHT22;32991;51.374;11.586;2022-10-16T14:29:08;26.90;80.70
47252;DHT22;32991;51.374;11.586;2022-10-16T14:31:37;26.60;81.30
47252;DHT22;32991;51.374;11.586;2022-10-16T14:36:51;26.30;81.60
47252;DHT22;32991;51.374;11.586;2022-10-16T14:39:19;25.90;82.00
47252;DHT22;32991;51.374;11.586;2022-10-16T14:41:48;25.20;83.00
47252;DHT22;32991;51.374;11.586;2022-10-16T14:44:15;24.30;85.40
47252;DHT22;32991;51.374;11.586;2022-10-16T14:46:43;23.70;88.00
47252;DHT22;32991;51.374;11.586;2022-10-16T14:51:38;23.10;90.20
47252;DHT22;32991;51.374;11.586;2022-10-16T14:54:08;22.70;90.60
47252;DHT22;32991;51.374;11.586;2022-10-16T14:56:54;22.40;91.10
47252;DHT22;32991;51.374;11.586;2022-10-16T14:59:27;22.30;91.70
47252;DHT22;32991;51.374;11.586;2022-10-16T15:01:54;22.30;91.60
47252;DHT22;32991;51.374;11.586;2022-10-16T15:04:21;22.30;91.70
47252;DHT22;32991;51.374;11.586;2022-10-16T15:06:48;22.30;91.90
47252;DHT22;32991;51.374;11.586;2022-10-16T15:09:14;22.10;92.20
47252;DHT22;32991;51.374;11.586;2022-10-16T15:11:42;21.80;92.80
47252;DHT22;32991;51.374;11.586;2022-10-16T15:14:12;21.40;93.60
47252;DHT22;32991;51.374;11.586;2022-10-16T15:16:41;21.10;94.10
47252;DHT22;32991;51.374;11.586;2022-10-16T15:19:08;20.80;94.70
47252;DHT22;32991;51.374;11.586;2022-10-16T15:21:35;20.60;95.50
47252;DHT22;32991;51.374;11.586;2022-10-16T15:24:02;20.40;96.20
47252;DHT22;32991;51.374;11.586;2022-10-16T15:26:29;20.30;96.60
47252;DHT22;32991;51.374;11.586;2022-10-16T15:28:56;20.10;97.00
47252;DHT22;32991;51.374;11.586;2022-10-16T15:31:24;20.00;97.60
47252;DHT22;32991;51.374;11.586;2022-10-16T15:33:51;19.90;98.20
47252;DHT22;32991;51.374;11.586;2022-10-16T15:36:32;19.80;98.40
47252;DHT22;32991;51.374;11.586;2022-10-16T15:39:00;19.80;99.10
47252;DHT22;32991;51.374;11.586;2022-10-16T15:41:27;19.90;99.40
47252;DHT22;32991;51.374;11.586;2022-10-16T15:43:54;20.10;99.50
47252;DHT22;32991;51.374;11.586;2022-10-16T15:46:21;20.60;99.10
47252;DHT22;32991;51.374;11.586;2022-10-16T15:48:49;20.70;98.50
47252;DHT22;32991;51.374;11.586;2022-10-16T15:51:16;20.60;98.50
47252;DHT22;32991;51.374;11.586;2022-10-16T15:53:44;20.40;98.80
47252;DHT22;32991;51.374;11.586;2022-10-16T15:56:13;20.10;99.40
47252;DHT22;32991;51.374;11.586;2022-10-16T15:58:42;19.90;99.90
47252;DHT22;32991;51.374;11.586;2022-10-16T16:01:09;19.70;99.90
47252;DHT22;32991;51.374;11.586;2022-10-16T16:03:37;19.40;99.90
47252;DHT22;32991;51.374;11.586;2022-10-16T16:06:07;19.20;99.90
47252;DHT22;32991;51.374;11.586;2022-10-16T16:08:34;19.00;99.90
47252;DHT22;32991;51.374;11.586;2022-10-16T16:11:03;18.80;99.90
47252;DHT22;32991;51.374;11.586;2022-10-16T16:13:30;18.70;99.90
47252;DHT22;32991;51.374;11.586;2022-10-16T16:15:57;18.50;99.90
47252;DHT22;32991;51.374;11.586;2022-10-16T16:18:24;18.40;99.90
47252;DHT22;32991;51.374;11.586;2022-10-16T16:20:51;18.30;99.90
47252;DHT22;32991;51.374;11.586;2022-10-16T16:23:19;18.20;99.90
47252;DHT22;32991;51.374;11.586;2022-10-16T16:26:02;18.00;99.90
47252;DHT22;32991;51.374;11.586;2022-10-16T16:28:29;18.00;99.90
47252;DHT22;32991;51.374;11.586;2022-10-16T16:30:56;17.90;99.90
47252;DHT22;32991;51.374;11.586;2022-10-16T16:33:23;17.80;99.90
47252;DHT22;32991;51.374;11.586;2022-10-16T16:35:50;17.80;99.90
47252;DHT22;32991;51.374;11.586;2022-10-16T16:38:17;17.70;99.90
47252;DHT22;32991;51.374;11.586;2022-10-16T16:40:44;17.60;99.90
47252;DHT22;32991;51.374;11.586;2022-10-16T16:43:11;17.60;99.90
47252;DHT22;32991;51.374;11.586;2022-10-16T16:45:37;17.50;99.90
47252;DHT22;32991;51.374;11.586;2022-10-16T16:48:04;17.50;99.90
47252;DHT22;32991;51.374;11.586;2022-10-16T16:50:36;17.50;99.90
47252;DHT22;32991;51.374;11.586;2022-10-16T16:53:03;17.40;99.90
47252;DHT22;32991;51.374;11.586;2022-10-16T16:55:30;17.40;99.90
47252;DHT22;32991;51.374;11.586;2022-10-16T16:57:57;17.40;99.90
47252;DHT22;32991;51.374;11.586;2022-10-16T17:00:24;17.40;99.90
47252;DHT22;32991;51.374;11.586;2022-10-16T17:02:50;17.50;99.90
47252;DHT22;32991;51.374;11.586;2022-10-16T17:05:17;17.50;99.90
47252;DHT22;32991;51.374;11.586;2022-10-16T17:07:44;17.40;99.90
47252;DHT22;32991;51.374;11.586;2022-10-16T17:10:11;17.40;99.90
47252;DHT22;32991;51.374;11.586;2022-10-16T17:12:38;17.30;99.90